Member area
Imprimable
Couvin, 10/02/2018, BEL - Trail et Marche des 3 Vallées
List of reports > 33km - Result
Search: Page: [1]
126 Entries
 
Complains are not accepted anymore. Results are final.
Category
PosNrNameAgeNATLeagueTeamRealTimeTkmMoy.PlaceNameCity
1.617DESCAMPS FLORIAN27BELFLOTRAINING2:22:442:22:444:20 13.871shETTERBEEK
2.709VAN LONDERSELE JONATHAN35BELHRC2:23:292:23:294:21 13.802shBIERBEEK
3.728BROSSARD ERIC48BELSKYRUNNER TEAM2:29:282:29:284:32 13.251ve1
4.737VAN RANST WIEBE28BEL2:37:292:37:294:47 12.573sh
5.705VAN DER VEKEN GREG26BELBIOTRAIL RUNNIN2:38:052:38:054:48 12.534shGRAND-LEEZ
6.616DEROO FRANÇOIS34FRACLLL ARMENTIÈRE2:42:062:42:064:55 12.225shBOESCHEPE
7.666MICHEL CHRISTOPHER34BELJACO2:45:192:45:195:01 11.986shFORGES
8.600AUDRAN FREDERIC45FRALES TRAILEURS D2:45:332:45:335:01 11.962ve1VIREUX-WALLERAND
9.722BAZEILLE DAVID38BEL2:47:452:47:455:05 11.807sh
10.619DETRAIT HUGUES30BELACCO2:48:342:48:345:07 11.758shPHILIPPEVILLE
11.621DEWANDELEER BART31BELKWB WAMBEEK JOG2:48:382:48:385:07 11.749shGOOIK
12.654LAOUREUX DENIS44BEL2:49:082:49:085:08 11.713ve1BRUXELLES
13.671ORTILLON EMMANUEL45FRAAS SOMMER2:49:562:49:565:09 11.654ve1GLAIRE
14.717VISSE STEPHANE51FRALES TRAILEURS D2:50:392:50:395:11 11.601ve2RANCENNES
15.658LEROUX MICKAEL43FRALES TRAILEURS D2:50:432:50:435:11 11.605ve1GIVET
16.751SOYEZ FRANK53BEL2:50:522:50:525:11 11.592ve2
17.754GAYE JEAN FRANCOISE40BEL2:52:172:52:175:14 11.496ve1
18.765RENARD YVES52BELCTA2:52:222:52:225:14 11.493ve2
19.635GHYSEL THOMAS31BEL2:52:412:52:415:14 11.4710shSENEFFE
20.648HUBEAUX DENIS40BELRUS BIESME2:53:152:53:155:15 11.437ve15640
21.628DURIN CHRISTOPHE32BELJC QUIÉVRAIN2:54:542:54:545:18 11.3211shROISIN
22.650KLEISCH OLIVIER51FRAAS SOMMER2:55:452:55:455:20 11.274ve2SEDAN
23.667MOULIN JORDY30BELPOPUELLES2:56:052:56:055:21 11.2412shVAULX
24.602BERNARD CHRISTOPHE47FRA2:57:012:57:015:22 11.198ve1BAISIEUX
25.690RIGUELLE FRANÇOIS37BELFLEU / POTOS RO3:01:053:01:055:30 10.9313shLIGNY
26.726BRACONNIER MIGUEL29BEL3:01:253:01:255:30 10.9114sh
27.680PONCELET ANTOINE28BEL3:01:593:01:595:31 10.8815shJAMBES
28.720REGHEM THIERRY59BELSHARKS TRIATHLO3:02:573:02:575:33 10.825ve2
29.686RAUCENT MARTIN31BEL3:03:103:03:105:34 10.8116shBRUXELLES
30.652KRAUCH BRUNO39BELRUNNING CONCEPT3:03:133:03:135:34 10.8117shFLORENVILLE
31.685RATHMES JEAN-MARC46BELLES LEUS3:03:253:03:255:34 10.809ve1PESCHE
32.740BUYST JELLE33BEL3:03:253:03:255:34 10.8018sh
33.682RADERMECKER NICOLAS36BELFLEURUS / GERPI3:03:403:03:405:34 10.7819shGOUGNIES
34.761HUBERT CHARLES35BELTCDM3:04:043:04:045:35 10.7620shMONS
35.657LEERG OLIVIER43BEL#FATT3:04:163:04:165:36 10.7510ve1KORTRIJK
36.721BUTTAERT FRANE47BEL3:04:163:04:165:36 10.7511ve1
37.734BIERWISCH JEAN MICHEL46BELTOUS MAUREEN3:04:263:04:265:36 10.7412ve1
38.759BUTTIENS STEVE35BEL3:05:063:05:065:37 10.7021sh
39.745FONTAINE GILLES22BEL3:06:203:06:205:39 10.6322sh
40.733VINCENT NICOLAS48BEL3:07:173:07:175:41 10.5713ve1
41.649JACQUES EDDY48BEL3:07:373:07:375:42 10.5514ve1LA HESTRE
42.681POUCET ANTOINE36BEL3:09:313:09:315:45 10.4523shCHIMAY
43.634GEERTS MERIJN44BEL3:09:353:09:355:45 10.4415ve1WILSELE
44.748THIEBAUT WILFRIED28BEL3:10:223:10:225:47 10.4024sh
45.753FTHEEUWS EVI42BELAC LIERSE3:10:293:10:295:47 10.391ai1
46.678PIAT FABRICE33FRA3:10:333:10:335:47 10.3925shLUSTIN
47.684RAPHAËL YVES56BEL3:10:343:10:345:47 10.396ve2MONTIGNY LE TILLEUL
48.750DECOURTY JEAN PIERRE65BELMADRES3:10:483:10:485:47 10.381ve3
49.747LEDOUX ALEXIS32BEL3:11:043:11:045:48 10.3626sh
50.706VAN DE VELDE SÉBASTIEN47FRA3:12:173:12:175:50 10.3016ve1VIREUX-MOLHAIN
51.746GAULIER PIERRE49BEL3:12:443:12:445:51 10.2717ve1
52.675PESTIAUX GRÉGORY39BELPEARTEAM3:13:153:13:155:52 10.2527shPESCHE
53.708VANHERPE KASPER24BEL3:14:313:14:315:54 10.1828shGREMBERGEN
54.664MATHIJSSEN BASTIAN47NLDB- RUNNING3:14:323:14:325:54 10.1818ve1ZONNEMAIRE
55.691ROBERT VERWIJS41NLDROBERT VERWIJS3:14:343:14:345:54 10.1819ve1ZONNEMAIRE
56.625DORCHY CEDRIC40BELXTRA TIME RUNNI3:15:323:15:325:56 10.1320ve1ANTOING
57.732DAUSSY EMERIC36BELCSCV HIRSON3:15:333:15:335:56 10.1329sh
58.744DJENAB LAURENT31BELTRAILER DE LA P3:15:503:15:505:57 10.1130sh
59.656LEDUC AYMERIC43FRAETM3:18:233:18:236:01 9.9821ve1MOUSCRON
60.736BLANCO RAMON57BEL3:18:263:18:266:01 9.987ve2
61.763BRANLE DAVID49BELLDLV3:18:503:18:506:02 9.9622ve1CHATELINEAU
62.639GRIBOUT JEAN PHILIPPE48FRAGRAC ATHLETISME3:19:223:19:226:03 9.9323ve1LA FRANCHEVILLE
63.712VELARD LAURENT48FRATRAIL AVENTURES3:19:283:19:286:03 9.9324ve1REIMS
64.627FDOYEN EDITH49FRATNT3:19:283:19:286:03 9.932ai1BETHENY
65.704VAN BELLE MAXIME32BELELEMENT TREK3:21:083:21:086:06 9.8431shFRASNES (COUVIN)
66.739SMEDTS HANS37BEL3:21:263:21:266:07 9.8332sh
67.743BURNIAT ETIENNE57BEL3:21:403:21:406:07 9.828ve2
68.757DEMEUNIER PASCAL58BEL3:22:263:22:266:09 9.789ve2
69.758PIRENNE DAVID43BEL3:24:083:24:086:12 9.7025ve1
70.725LANNOO MICHAEL43BELCABW TRAIL3:24:103:24:106:12 9.7026ve1
71.741DORCHY QUENTIN45BELRC TEMPLEUVE3:24:193:24:196:12 9.6927ve1
72.760GERSDORFF FREDERIC41BEL3:24:213:24:216:12 9.6928ve1
73.738VAN HULLE FRANCOIS33BEL3:25:263:25:266:14 9.6433sh
74.735CHARLOT FABRICE48BELZATAC CHARLEROI3:25:523:25:526:15 9.6229ve1
75.715VERSTICHEL ALAIN56BELNÉANT3:25:543:25:546:15 9.6210ve2THUIN
76.672FPAREIN ESTELLE26BELACLO3:26:123:26:126:15 9.601sfLA LOUVIERE
77.631FOUBERT BENOIT40BEL3:26:343:26:346:16 9.5930ve1GUYANCOURT
78.699SOUTMANS THIBAUT28BELTNT/XVDULOUP3:29:363:29:366:22 9.4534shNAMUR
79.626DOUETTE ERIC63FRALES TRAILEURS D3:29:553:29:556:22 9.432ve3VIREUX MOLHAIN
80.755DAOUST TANGUY37BEL3:30:183:30:186:23 9.4235shHAMOIS
81.669NICOLAS OLIVIER51FRACA SEDAN3:30:353:30:356:23 9.4011ve2BALAN
82.661LUYCKX JACQUES49BELJCPMF - RAMILLI3:31:213:31:216:25 9.3731ve1PERWEZ
83.646HENRARD JEREMY36BELROCCO TEAM3:32:433:32:436:27 9.3136shBLATON
84.756ZEDDA TIMO53BELMADRES3:33:383:33:386:29 9.2712ve2
85.674FPAUCOT DELPHINE37FRA3:35:163:35:166:32 9.202sfLIESSIES
86.638GLASSET JULIEN43FRA3:35:173:35:176:32 9.2032ve1SOLRE LE CHÂTEAU
87.710VAN NUFFELEN JULIEN40BELLES CASTORS3:36:083:36:086:33 9.1633ve1PONT DE LOUP
88.679POINCELET DENIS48FRA3:38:053:38:056:37 9.0834ve1HAYBES
89.700STEVENS YVES42BEL3:38:543:38:546:38 9.0535ve1SINT-AMANDS
90.620DE WACHTER LIEVEN41BELIMPALA RUNNING 3:38:543:38:546:38 9.0536ve1SINT-AMANDS
91.614DELCART KRISTOF39BEL3:38:553:38:556:39 9.0437shBORNEM
92.749FFROONINCKX AUDREY35BELJC MONTAGNARD3:42:113:42:116:44 8.913sf
93.692RODIA FRÉDÉRIC45BELMADRES3:42:543:42:546:46 8.8837ve1FRAMERIES
94.645HENNEBERT BERTRAND38BELARAMIS RUNNING 3:42:543:42:546:46 8.8838shSAINT SYMPHORIEN
95.670OLIVIER LOIC34BEL3:43:553:43:556:48 8.8439shMAUBRAY
96.644HATTAS WERNER58BELWACCOO TRAILERS3:45:313:45:316:51 8.7813ve2WOMMELGEM
97.711VAN ROY DIMITRI40BEL3:45:323:45:326:51 8.7838ve1GROBBBENDONK
98.677PETITJEAN THOMAS40BELTRAILER DES FAG3:46:393:46:396:53 8.7439ve1FLORENNES
99.676PETITJEAN DAMIEN43BEL3:46:403:46:406:53 8.7440ve1MONTIGNY-LE-TILLEUL
100.701FTAELMAN MAAIKE36BELGENT RUNNING TE3:47:183:47:186:54 8.714sfGENT
101.716FVERVOORT SYLVIE41BELGENT RUNNING TE3:47:193:47:196:54 8.713ai1GENT
102.647HINNEKENS STIJN43BEL3:48:003:48:006:55 8.6841ve1HARELBEKE
103.618DESMET NICOLAAS41BEL3:48:023:48:026:55 8.6842ve1KORTRIJK
104.723CHARLIER THIBAULT38BEL3:48:253:48:256:56 8.6740sh
105.730BRESSAN FABRIZIO49BELSL GOSP3:48:283:48:286:56 8.6743ve1
106.609CARPI EDI40BELGRC3:49:183:49:186:57 8.6444ve1GERPINNES
107.91FILIPPONE SERGE42FRATRAILEURS DE LA3:52:193:52:197:03 8.5245ve1VIREUX MOLHAIN
108.718WOLTÈCHE HERVÉ36BEL3:52:313:52:317:03 8.5241shFLÉRON
109.729CIRELLI MARIO66BELGOSP3:53:273:53:277:05 8.483ve3
110.624DI CATALDO MICHEL59ITAGOSSELIES SPORT3:53:283:53:287:05 8.4814ve2THY LE CHATEAU
111.637GIOVANNANGELO ALAIN66BELESM3:53:293:53:297:05 8.484ve3NIVELLES
112.703VALENTI DAVID47BEL3:54:153:54:157:06 8.4546ve1CHARLEROI
113.752FCOUNPOURAS GERALDINE40BELARAMIS3:55:373:55:377:09 8.404ai1
114.693ROUPIN KÉVIN24BEL4:02:584:02:587:22 8.1542shPÉRONNES-LEZ-ANTOING
115.668MULOT ROMAIN41FRACMA4:06:074:06:077:28 8.0547ve1VILLERS-SEMEUSE
116.687RAVIAT EDDY57FRA4:08:084:08:087:32 7.9815ve2FUMAY
117.629DUTRIEUX RONALD50BEL4:08:264:08:267:32 7.9716ve2SAINT-SERVAIS
118.612CURATI UMBERTO37ITAJCHSH4:10:274:10:277:36 7.9143shGERPINNES
119.632FOUBERT GILLES44BEL4:11:144:11:147:37 7.8848ve1CHAMPS-SUR-MARNE
120.615FDE MEESTER ANNELIES42BEL4:17:134:17:137:48 7.705ai1MEIGEM
121.610CESTARO ETTORE45BELJCHSH4:18:574:18:577:51 7.6549ve1HAM-SUR-HEURE-NALINNES
122.766MARTENS FRANCOIS43BELJCHSH4:18:584:18:587:51 7.6550ve1
123.727GRUSELLE JONATHAN41BEL4:27:264:27:268:07 7.4051ve1
124.630FEUILLET JOHAN53BELRAINBOW MULTISP4:30:264:30:268:12 7.3217ve2DEUX-ACREN
125.724CASSETTO BERNARD66BEL4:33:184:33:188:17 7.245ve3
126.731DELMOTTE OLIVIER40BELGRANY4:48:004:48:008:44 6.8852ve1
DNF: did not finish; DSQ: disqualified; Speed in km/h
Page: [1]